Cleveland, Ohio
Traffic Map
Current Weather Conditions
Cleveland, Ohio
Clear
Clear
75°
Feels Like: 75°
Wind Chill: 75° Ceiling: Unl
Heat Index: 75° Visibility: 10mi
Dew Point: 65° Wind: 20mph
Humidity: 71% Direction: 190° (S)
Pressure: 29.77in Gusts: 24mph
Raw Report DataKBKL 230653Z 19017G21KT 10SM CLR 24/18 A2977 RMK AO2 SLP076 T02390183
Traffic Incident Summary
Active as of:
Severity:
Category:
InformationThere was an issue retrieving the traffic information for this location. Please try a different location or try again shortly.
Advertisements
Track Severe Weather on mobile